createdAt,value
2022-11-10T00:00:13.563Z,12.08
2022-11-10T00:03:05.370Z,12.01
2022-11-10T00:05:51.779Z,11.96
2022-11-10T00:08:38.572Z,11.94
2022-11-10T00:11:25.888Z,11.89
2022-11-10T00:14:29.867Z,11.91
2022-11-10T00:17:17.714Z,11.97
2022-11-10T00:20:07.083Z,12.02
2022-11-10T00:22:55.643Z,12.08
2022-11-10T00:25:42.193Z,12.15
2022-11-10T00:28:31.315Z,12.17
2022-11-10T00:31:18.668Z,12.18
2022-11-10T00:34:06.455Z,12.20
2022-11-10T00:36:53.047Z,12.25
2022-11-10T00:39:45.651Z,12.31
2022-11-10T00:42:31.938Z,12.35
2022-11-10T00:45:21.240Z,12.38
2022-11-10T00:48:07.469Z,12.34
2022-11-10T00:50:55.224Z,12.26
2022-11-10T00:53:41.585Z,12.11
2022-11-10T00:56:34.619Z,12.01
2022-11-10T00:59:22.615Z,11.90
2022-11-10T01:02:08.923Z,11.83
2022-11-10T01:05:05.329Z,11.75
2022-11-10T01:07:53.285Z,11.72
2022-11-10T01:10:39.741Z,11.87
2022-11-10T01:13:27.027Z,11.86
2022-11-10T01:16:20.351Z,11.82
2022-11-10T01:19:06.552Z,11.77
2022-11-10T01:21:53.055Z,11.75
2022-11-10T01:24:41.241Z,11.67
2022-11-10T01:27:33.889Z,11.68
2022-11-10T01:30:20.763Z,11.62
2022-11-10T01:33:07.127Z,11.56
2022-11-10T01:36:01.380Z,11.52
2022-11-10T01:38:53.958Z,11.49
2022-11-10T01:41:44.167Z,11.45
2022-11-10T01:44:36.095Z,11.42
2022-11-10T01:47:22.612Z,11.38
2022-11-10T01:50:12.391Z,11.34
2022-11-10T01:53:02.489Z,11.31
2022-11-10T01:55:53.883Z,11.28
2022-11-10T01:58:46.042Z,11.23
2022-11-10T02:01:32.549Z,11.23
2022-11-10T02:04:20.756Z,11.24
2022-11-10T02:07:07.775Z,11.26
2022-11-10T02:09:54.356Z,11.28
2022-11-10T02:12:41.094Z,11.24
2022-11-10T02:15:28.766Z,11.19
2022-11-10T02:18:15.271Z,11.16
2022-11-10T02:21:04.803Z,11.14
2022-11-10T02:23:52.293Z,11.11
2022-11-10T02:26:47.644Z,11.07
2022-11-10T02:29:35.059Z,11.01
2022-11-10T02:32:21.669Z,10.99
2022-11-10T02:35:10.027Z,10.98
2022-11-10T02:38:00.649Z,10.94
2022-11-10T02:40:50.304Z,10.90
2022-11-10T02:43:38.452Z,10.89
2022-11-10T02:46:24.502Z,10.87
2022-11-10T02:49:10.796Z,10.88
2022-11-10T02:51:57.583Z,10.87
2022-11-10T02:54:45.189Z,10.87
2022-11-10T02:57:34.815Z,10.86
2022-11-10T03:00:24.351Z,10.85
2022-11-10T03:03:13.682Z,10.85
2022-11-10T03:06:00.113Z,10.82
2022-11-10T03:08:46.537Z,10.61
2022-11-10T03:11:34.343Z,10.80
2022-11-10T03:14:20.919Z,10.80
2022-11-10T03:17:07.039Z,10.79
2022-11-10T03:19:53.284Z,10.76
2022-11-10T03:22:39.766Z,10.70
2022-11-10T03:25:29.810Z,10.69
2022-11-10T03:28:23.728Z,10.67
2022-11-10T03:31:09.873Z,10.65
2022-11-10T03:33:58.439Z,10.65
2022-11-10T03:36:44.938Z,10.66
2022-11-10T03:39:31.329Z,10.64
2022-11-10T03:42:17.906Z,10.62
2022-11-10T03:45:06.394Z,10.58
2022-11-10T03:47:53.006Z,10.59
2022-11-10T03:50:39.350Z,10.55
2022-11-10T03:53:26.040Z,10.55
2022-11-10T03:56:13.695Z,10.53
2022-11-10T03:58:59.933Z,10.51
2022-11-10T04:01:48.218Z,10.48
2022-11-10T04:04:51.874Z,10.49
2022-11-10T04:07:55.706Z,10.50
2022-11-10T04:10:50.709Z,10.49
2022-11-10T04:13:59.336Z,10.50
2022-11-10T04:16:45.944Z,10.47
2022-11-10T04:19:42.403Z,10.46
2022-11-10T04:22:45.038Z,10.41
2022-11-10T04:25:51.744Z,10.18
2022-11-10T04:28:45.843Z,10.39
2022-11-10T04:31:35.651Z,10.38
2022-11-10T04:34:35.930Z,10.36
2022-11-10T04:37:22.304Z,10.34
2022-11-10T04:40:09.580Z,10.33
2022-11-10T04:42:56.807Z,10.30
2022-11-10T04:45:44.814Z,10.30
2022-11-10T04:48:34.578Z,10.32
2022-11-10T04:51:26.473Z,10.30
2022-11-10T04:54:13.928Z,10.29
2022-11-10T04:57:04.353Z,10.30
2022-11-10T05:00:03.940Z,10.34
2022-11-10T05:02:50.318Z,10.34
2022-11-10T05:05:39.774Z,10.38
2022-11-10T05:08:29.209Z,10.38
2022-11-10T05:11:16.279Z,10.38
2022-11-10T05:14:02.391Z,10.38
2022-11-10T05:16:48.604Z,10.39
2022-11-10T05:19:34.858Z,10.42
2022-11-10T05:22:21.053Z,10.46
2022-11-10T05:25:09.790Z,10.49
2022-11-10T05:27:56.440Z,10.50
2022-11-10T05:30:42.548Z,10.54
2022-11-10T05:33:32.016Z,10.53
2022-11-10T05:36:18.388Z,10.49
2022-11-10T05:39:07.956Z,10.57
2022-11-10T05:41:55.893Z,10.58
2022-11-10T05:44:42.214Z,10.56
2022-11-10T05:47:37.521Z,10.55
2022-11-10T05:50:25.545Z,10.59
2022-11-10T05:53:14.325Z,10.63
2022-11-10T05:56:01.222Z,10.61
2022-11-10T05:58:49.219Z,10.61
2022-11-10T06:01:41.946Z,10.60
2022-11-10T06:04:28.943Z,10.57
2022-11-10T06:07:16.923Z,10.56
2022-11-10T06:10:05.550Z,10.54
2022-11-10T06:12:53.253Z,10.54
2022-11-10T06:15:55.978Z,10.53
2022-11-10T06:18:42.904Z,10.55
2022-11-10T06:21:44.497Z,10.54
2022-11-10T06:24:33.048Z,10.54
2022-11-10T06:27:19.247Z,10.56
2022-11-10T06:30:06.379Z,10.58
2022-11-10T06:32:54.752Z,10.58
2022-11-10T06:35:41.217Z,10.60
2022-11-10T06:38:27.474Z,10.61
2022-11-10T06:41:13.808Z,10.59
2022-11-10T06:44:00.413Z,10.55
2022-11-10T06:46:50.116Z,10.54
2022-11-10T06:49:37.856Z,10.52
2022-11-10T06:52:26.528Z,10.55
2022-11-10T06:55:13.911Z,10.56
2022-11-10T06:58:00.201Z,10.53
2022-11-10T07:00:50.128Z,10.57
2022-11-10T07:04:13.000Z,10.60
2022-11-10T07:06:54.094Z,10.60
2022-11-10T07:09:43.689Z,10.59
2022-11-10T07:12:34.354Z,10.61
2022-11-10T07:15:20.629Z,10.63
2022-11-10T07:18:09.010Z,10.64
2022-11-10T07:20:55.381Z,10.69
2022-11-10T07:23:43.008Z,10.73
2022-11-10T07:26:29.233Z,10.80
2022-11-10T07:29:17.268Z,10.88
2022-11-10T07:32:10.887Z,10.93
2022-11-10T07:34:59.997Z,10.99
2022-11-10T07:37:52.518Z,11.06
2022-11-10T07:40:46.375Z,11.14
2022-11-10T07:43:33.025Z,11.22
2022-11-10T07:46:19.376Z,11.26
2022-11-10T07:49:05.958Z,11.26
2022-11-10T07:51:52.582Z,11.30
2022-11-10T07:54:38.952Z,11.28
2022-11-10T07:57:26.769Z,11.34
2022-11-10T08:00:16.707Z,11.36
2022-11-10T08:03:13.587Z,11.42
2022-11-10T08:06:00.246Z,11.25
2022-11-10T08:08:54.392Z,11.50
2022-11-10T08:11:41.681Z,11.54
2022-11-10T08:14:35.581Z,11.64
2022-11-10T08:17:22.264Z,11.72
2022-11-10T08:20:21.216Z,11.71
2022-11-10T08:23:08.210Z,11.75
2022-11-10T08:25:59.809Z,11.86
2022-11-10T08:28:46.958Z,12.08
2022-11-10T08:31:38.392Z,12.28
2022-11-10T08:34:24.975Z,12.40
2022-11-10T08:37:16.442Z,12.49
2022-11-10T08:40:04.459Z,12.53
2022-11-10T08:43:00.748Z,12.51
2022-11-10T08:45:50.034Z,12.49
2022-11-10T08:48:37.799Z,12.35
2022-11-10T08:51:39.570Z,12.27
2022-11-10T08:54:26.593Z,12.16
2022-11-10T08:57:13.186Z,12.14
2022-11-10T08:59:59.946Z,12.20
2022-11-10T09:02:50.035Z,12.17
2022-11-10T09:05:37.926Z,12.13
2022-11-10T09:08:25.047Z,12.16
2022-11-10T09:11:20.208Z,12.19
2022-11-10T09:14:09.868Z,12.25
2022-11-10T09:17:21.817Z,12.28
2022-11-10T09:20:10.414Z,12.32
2022-11-10T09:23:15.867Z,12.35
2022-11-10T09:26:08.679Z,12.40
2022-11-10T09:31:55.704Z,12.60
2022-11-10T09:34:43.141Z,12.72
2022-11-10T09:37:29.764Z,12.52
2022-11-10T09:40:22.868Z,12.78
2022-11-10T09:43:18.476Z,12.75
2022-11-10T09:46:12.891Z,12.68
2022-11-10T09:49:04.955Z,12.75
2022-11-10T09:51:53.451Z,12.78
2022-11-10T09:54:45.295Z,12.85
2022-11-10T09:57:33.577Z,12.95
2022-11-10T10:00:20.641Z,12.94
2022-11-10T10:03:08.198Z,12.92
2022-11-10T10:06:07.646Z,13.01
2022-11-10T10:09:06.096Z,13.11
2022-11-10T10:12:04.991Z,13.10
2022-11-10T10:15:05.136Z,12.89
2022-11-10T10:18:05.126Z,13.01
2022-11-10T10:21:07.509Z,12.87
2022-11-10T10:24:10.271Z,13.01
2022-11-10T10:27:02.265Z,12.99
2022-11-10T10:29:50.360Z,13.05
2022-11-10T10:32:39.157Z,13.10
2022-11-10T10:35:27.569Z,13.14
2022-11-10T10:38:23.467Z,13.22
2022-11-10T10:41:22.529Z,13.32
2022-11-10T10:44:13.988Z,13.30
2022-11-10T10:47:03.045Z,13.25
2022-11-10T10:49:51.759Z,13.32
2022-11-10T10:52:39.590Z,13.31
2022-11-10T10:55:31.460Z,13.37
2022-11-10T10:58:26.798Z,13.44
2022-11-10T11:01:37.091Z,13.46
2022-11-10T11:04:30.899Z,13.52
2022-11-10T11:07:26.158Z,13.59
2022-11-10T11:10:21.665Z,13.62
2022-11-10T11:13:23.959Z,13.65
2022-11-10T11:16:15.674Z,13.66
2022-11-10T11:19:02.999Z,13.74
2022-11-10T11:22:04.297Z,13.74
2022-11-10T11:25:08.934Z,13.74
2022-11-10T11:28:09.851Z,13.84
2022-11-10T11:31:09.905Z,13.95
2022-11-10T11:34:05.612Z,13.99
2022-11-10T11:37:09.899Z,14.16
2022-11-10T11:40:15.532Z,14.32
2022-11-10T11:43:17.138Z,14.52
2022-11-10T11:46:12.864Z,14.67
2022-11-10T11:49:20.090Z,14.79
2022-11-10T11:52:16.981Z,14.82
2022-11-10T11:55:19.539Z,14.54
2022-11-10T11:58:23.947Z,14.36
2022-11-10T12:01:25.654Z,14.52
2022-11-10T12:04:39.077Z,14.25
2022-11-10T12:07:45.347Z,14.47
2022-11-10T12:10:43.808Z,14.50
2022-11-10T12:13:42.841Z,14.57
2022-11-10T12:16:31.665Z,14.55
2022-11-10T12:19:32.154Z,14.67
2022-11-10T12:22:31.764Z,14.78
2022-11-10T12:25:26.163Z,14.92
2022-11-10T12:28:18.665Z,15.02
2022-11-10T12:31:11.342Z,14.90
2022-11-10T12:34:03.195Z,15.15
2022-11-10T12:36:52.282Z,15.12
2022-11-10T12:39:47.791Z,15.08
2022-11-10T12:42:38.532Z,14.98
2022-11-10T12:45:32.134Z,14.82
2022-11-10T12:48:19.974Z,14.71
2022-11-10T12:51:16.515Z,14.68
2022-11-10T12:54:03.715Z,14.68
2022-11-10T12:56:54.919Z,14.51
2022-11-10T12:59:42.704Z,14.64
2022-11-10T13:02:40.274Z,14.64
2022-11-10T13:05:35.528Z,14.59
2022-11-10T13:08:39.197Z,14.47
2022-11-10T13:11:43.572Z,14.62
2022-11-10T13:14:31.628Z,14.64
2022-11-10T13:17:56.993Z,14.68
2022-11-10T13:20:51.425Z,14.65
2022-11-10T13:24:19.003Z,14.62
2022-11-10T13:27:11.641Z,14.45
2022-11-10T13:30:00.105Z,14.62
2022-11-10T13:32:47.439Z,14.57
2022-11-10T13:35:55.529Z,14.60
2022-11-10T13:38:44.356Z,14.54
2022-11-10T13:41:46.460Z,14.55
2022-11-10T13:44:36.161Z,14.62
2022-11-10T13:47:41.019Z,14.60
2022-11-10T13:50:40.721Z,14.44
2022-11-10T13:53:39.380Z,14.60
2022-11-10T13:56:46.791Z,14.57
2022-11-10T13:59:44.502Z,14.57
2022-11-10T14:02:52.000Z,14.56
2022-11-10T14:06:10.923Z,14.53
2022-11-10T14:09:07.157Z,14.49
2022-11-10T14:11:59.967Z,14.29
2022-11-10T14:14:55.326Z,14.46
2022-11-10T14:17:45.317Z,14.42
2022-11-10T14:20:38.991Z,14.21
2022-11-10T14:23:31.333Z,14.23
2022-11-10T14:26:25.727Z,14.47
2022-11-10T14:29:35.898Z,14.44
2022-11-10T14:32:24.901Z,14.43
2022-11-10T14:35:22.096Z,14.42
2022-11-10T14:38:21.022Z,14.41
2022-11-10T14:41:17.300Z,14.13
2022-11-10T14:44:07.325Z,14.21
2022-11-10T14:46:54.718Z,14.37
2022-11-10T14:49:41.446Z,14.27
2022-11-10T14:52:27.949Z,14.29
2022-11-10T14:55:18.645Z,14.25
2022-11-10T14:58:09.367Z,14.17
2022-11-10T15:00:57.700Z,14.09
2022-11-10T15:03:44.983Z,14.07
2022-11-10T15:06:33.106Z,13.91
2022-11-10T15:09:25.110Z,13.98
2022-11-10T15:12:28.402Z,13.90
2022-11-10T15:15:24.029Z,13.85
2022-11-10T15:18:29.196Z,13.78
2022-11-10T15:21:17.293Z,13.71
2022-11-10T15:24:07.202Z,13.71
2022-11-10T15:26:53.944Z,13.70
2022-11-10T15:29:40.638Z,13.78
2022-11-10T15:32:36.030Z,13.53
2022-11-10T15:35:30.634Z,13.92
2022-11-10T15:38:35.438Z,13.87
2022-11-10T15:41:27.706Z,13.81
2022-11-10T15:44:17.281Z,13.69
2022-11-10T15:47:03.944Z,13.54
2022-11-10T15:49:50.493Z,13.53
2022-11-10T15:52:40.307Z,13.29
2022-11-10T15:55:27.264Z,13.47
2022-11-10T15:58:15.941Z,13.46
2022-11-10T16:01:03.370Z,13.43
2022-11-10T16:03:54.419Z,13.34
2022-11-10T16:06:44.007Z,13.30
2022-11-10T16:09:32.192Z,13.04
2022-11-10T16:12:21.963Z,13.01
2022-11-10T16:15:16.795Z,12.95
2022-11-10T16:18:04.911Z,13.08
2022-11-10T16:21:05.036Z,12.87
2022-11-10T16:23:52.594Z,13.05
2022-11-10T16:26:40.489Z,13.03
2022-11-10T16:29:31.521Z,12.97
2022-11-10T16:32:18.591Z,12.60
2022-11-10T16:35:08.728Z,12.49
2022-11-10T16:37:57.718Z,12.72
2022-11-10T16:40:52.271Z,12.86
2022-11-10T16:43:41.295Z,12.17
2022-11-10T16:46:31.950Z,12.69
2022-11-10T16:49:26.173Z,12.83
2022-11-10T16:52:15.921Z,12.78
2022-11-10T16:55:02.624Z,12.69
2022-11-10T16:57:51.225Z,12.76
2022-11-10T17:00:45.688Z,12.50
2022-11-10T17:03:41.220Z,12.59
2022-11-10T17:06:52.988Z,12.70
2022-11-10T17:12:40.193Z,12.66
2022-11-10T17:15:26.467Z,12.64
2022-11-10T17:18:24.595Z,12.63
2022-11-10T17:21:14.501Z,12.61
2022-11-10T17:24:22.576Z,12.56
2022-11-10T17:27:11.900Z,12.56
2022-11-10T17:30:01.654Z,12.56
2022-11-10T17:33:09.251Z,12.48
2022-11-10T17:35:58.726Z,12.56
2022-11-10T17:38:47.150Z,12.56
2022-11-10T17:41:42.968Z,12.54
2022-11-10T17:44:29.717Z,12.50
2022-11-10T17:47:16.476Z,12.49
2022-11-10T17:50:03.473Z,12.47
2022-11-10T17:53:02.395Z,12.45
2022-11-10T17:55:52.807Z,12.43
2022-11-10T17:58:42.397Z,12.42
2022-11-10T18:01:29.555Z,12.41
2022-11-10T18:04:16.191Z,12.36
2022-11-10T18:07:09.994Z,12.35
2022-11-10T18:10:00.675Z,12.31
2022-11-10T18:12:51.640Z,12.13
2022-11-10T18:15:43.191Z,12.16
2022-11-10T18:18:31.432Z,12.31
2022-11-10T18:21:17.938Z,12.20
2022-11-10T18:24:04.624Z,12.30
2022-11-10T18:26:52.509Z,12.31
2022-11-10T18:29:39.012Z,12.25
2022-11-10T18:32:31.023Z,12.24
2022-11-10T18:35:18.111Z,12.29
2022-11-10T18:38:10.150Z,12.23
2022-11-10T18:44:29.628Z,12.26
2022-11-10T18:47:17.877Z,12.23
2022-11-10T18:50:04.244Z,12.20
2022-11-10T18:52:51.658Z,12.17
2022-11-10T18:55:40.561Z,12.14
2022-11-10T18:58:30.928Z,12.04
2022-11-10T19:01:19.884Z,12.07
2022-11-10T19:04:07.727Z,12.01
2022-11-10T19:06:58.027Z,11.95
2022-11-10T19:09:48.736Z,11.89
2022-11-10T19:12:47.621Z,11.84
2022-11-10T19:15:34.428Z,11.82
2022-11-10T19:18:24.236Z,11.70
2022-11-10T19:21:13.230Z,11.78
2022-11-10T19:24:02.903Z,11.76
2022-11-10T19:26:50.908Z,11.66
2022-11-10T19:29:39.353Z,11.68
2022-11-10T19:32:31.389Z,11.67
2022-11-10T19:35:26.881Z,11.65
2022-11-10T19:38:13.252Z,11.64
2022-11-10T19:41:03.519Z,11.61
2022-11-10T19:43:57.355Z,11.55
2022-11-10T19:46:46.038Z,11.52
2022-11-10T19:49:33.101Z,11.49
2022-11-10T19:52:20.871Z,11.47
2022-11-10T19:55:08.189Z,11.46
2022-11-10T19:57:59.215Z,11.48
2022-11-10T20:00:47.377Z,11.51
2022-11-10T20:03:33.905Z,11.53
2022-11-10T20:06:23.118Z,11.54
2022-11-10T20:09:10.790Z,11.55
2022-11-10T20:11:59.769Z,11.60
2022-11-10T20:14:47.649Z,11.64
2022-11-10T20:17:40.546Z,11.64
2022-11-10T20:20:26.782Z,11.64
2022-11-10T20:23:13.204Z,11.53
2022-11-10T20:26:09.690Z,11.59
2022-11-10T20:28:56.897Z,11.55
2022-11-10T20:31:43.897Z,11.49
2022-11-10T20:34:30.419Z,11.47
2022-11-10T20:37:16.963Z,11.39
2022-11-10T20:40:07.434Z,11.41
2022-11-10T20:43:15.403Z,11.41
2022-11-10T20:46:02.686Z,11.38
2022-11-10T20:48:58.984Z,11.38
2022-11-10T20:51:45.514Z,11.40
2022-11-10T20:54:32.654Z,11.38
2022-11-10T20:57:19.578Z,11.39
2022-11-10T21:00:11.082Z,11.37
2022-11-10T21:02:57.656Z,11.37
2022-11-10T21:05:44.218Z,11.32
2022-11-10T21:08:31.658Z,11.23
2022-11-10T21:11:38.983Z,11.22
2022-11-10T21:14:25.387Z,11.20
2022-11-10T21:17:15.259Z,11.16
2022-11-10T21:20:05.260Z,11.16
2022-11-10T21:22:52.853Z,11.08
2022-11-10T21:25:39.799Z,11.12
2022-11-10T21:28:29.545Z,11.13
2022-11-10T21:31:16.327Z,11.10
2022-11-10T21:34:29.634Z,11.17
2022-11-10T21:37:19.192Z,11.15
2022-11-10T21:40:06.893Z,11.17
2022-11-10T21:42:55.544Z,11.06
2022-11-10T21:45:41.812Z,11.15
2022-11-10T21:48:28.150Z,11.18
2022-11-10T21:51:16.354Z,11.18
2022-11-10T21:54:08.358Z,11.15
2022-11-10T21:56:54.936Z,11.14
2022-11-10T21:59:44.363Z,11.13
2022-11-10T22:02:31.531Z,11.10
2022-11-10T22:05:17.957Z,11.08
2022-11-10T22:08:06.471Z,11.05
2022-11-10T22:11:10.446Z,11.01
2022-11-10T22:14:16.914Z,11.01
2022-11-10T22:17:20.926Z,10.98
2022-11-10T22:20:08.372Z,10.96
2022-11-10T22:22:55.370Z,10.94
2022-11-10T22:25:43.108Z,10.96
2022-11-10T22:28:29.816Z,10.98
2022-11-10T22:31:16.702Z,10.98
2022-11-10T22:34:03.137Z,10.97
2022-11-10T22:36:50.206Z,10.93
2022-11-10T22:39:57.128Z,10.84
2022-11-10T22:43:04.390Z,10.77
2022-11-10T22:46:00.352Z,10.76
2022-11-10T22:48:50.583Z,10.75
2022-11-10T22:51:44.649Z,10.77
2022-11-10T22:54:31.022Z,10.78
2022-11-10T22:57:17.358Z,10.72
2022-11-10T23:00:09.776Z,10.68
2022-11-10T23:02:59.542Z,10.64
2022-11-10T23:05:55.928Z,10.58
2022-11-10T23:08:44.544Z,10.50
2022-11-10T23:11:32.839Z,10.43
2022-11-10T23:14:19.398Z,10.40
2022-11-10T23:17:09.284Z,10.49
2022-11-10T23:20:01.887Z,10.50
2022-11-10T23:22:48.601Z,10.50
2022-11-10T23:25:38.661Z,10.49
2022-11-10T23:28:25.466Z,10.47
2022-11-10T23:31:14.148Z,10.47
2022-11-10T23:34:02.065Z,10.47
2022-11-10T23:37:07.129Z,10.47
2022-11-10T23:39:53.613Z,10.47
2022-11-10T23:42:40.053Z,10.45
2022-11-10T23:45:52.674Z,10.41
2022-11-10T23:48:35.565Z,10.35
2022-11-10T23:51:24.833Z,10.33
2022-11-10T23:54:16.590Z,10.27
2022-11-10T23:57:03.224Z,10.22
2022-11-10T23:59:52.474Z,10.14
